createdAt,value
2022-10-03T00:01:57.984Z,17.30
2022-10-03T00:07:22.658Z,17.50
2022-10-03T00:13:03.300Z,17.30
2022-10-03T00:18:25.906Z,16.80
2022-10-03T00:23:58.408Z,16.70
2022-10-03T00:29:42.653Z,17.20
2022-10-03T00:34:50.442Z,17.30
2022-10-03T00:40:16.126Z,17.20
2022-10-03T00:45:55.380Z,17.00
2022-10-03T00:51:18.375Z,17.20
2022-10-03T00:56:41.597Z,17.20
2022-10-03T01:01:47.154Z,17.20
2022-10-03T01:07:16.456Z,17.20
2022-10-03T01:12:39.723Z,17.00
2022-10-03T01:17:59.613Z,17.60
2022-10-03T01:23:15.051Z,17.40
2022-10-03T01:28:19.823Z,17.10
2022-10-03T01:33:29.714Z,17.00
2022-10-03T01:38:43.612Z,17.10
2022-10-03T01:43:51.195Z,16.90
2022-10-03T01:48:55.631Z,17.10
2022-10-03T01:54:17.068Z,16.80
2022-10-03T01:59:56.185Z,17.00
2022-10-03T02:05:10.239Z,16.90
2022-10-03T02:10:38.778Z,17.20
2022-10-03T02:15:44.249Z,17.30
2022-10-03T02:20:50.904Z,17.00
2022-10-03T02:26:17.322Z,17.20
2022-10-03T02:31:43.685Z,17.20
2022-10-03T02:37:06.978Z,17.10
2022-10-03T02:42:51.876Z,16.90
2022-10-03T02:48:31.310Z,16.60
2022-10-03T02:54:01.459Z,17.20
2022-10-03T02:59:24.154Z,17.30
2022-10-03T03:05:07.339Z,17.20
2022-10-03T03:10:21.110Z,17.60
2022-10-03T03:15:48.721Z,17.50
2022-10-03T03:21:13.388Z,17.40
2022-10-03T03:26:23.583Z,17.70
2022-10-03T03:31:48.436Z,17.50
2022-10-03T03:36:58.928Z,17.50
2022-10-03T03:42:21.930Z,17.70
2022-10-03T03:48:01.931Z,17.80
2022-10-03T03:53:21.144Z,17.80
2022-10-03T03:58:34.404Z,17.80
2022-10-03T04:03:48.879Z,17.70
2022-10-03T04:09:18.178Z,17.70
2022-10-03T04:14:41.572Z,17.30
2022-10-03T04:19:57.968Z,17.20
2022-10-03T04:25:02.754Z,17.20
2022-10-03T04:30:12.687Z,17.60
2022-10-03T04:35:45.856Z,17.80
2022-10-03T04:40:59.469Z,17.70
2022-10-03T04:46:25.135Z,17.70
2022-10-03T04:51:56.720Z,17.70
2022-10-03T04:57:16.908Z,17.70
2022-10-03T05:02:21.507Z,17.10
2022-10-03T05:07:38.404Z,16.70
2022-10-03T05:13:06.181Z,16.50
2022-10-03T05:18:13.820Z,16.50
2022-10-03T05:23:27.544Z,16.00
2022-10-03T05:28:54.219Z,15.90
2022-10-03T05:34:13.363Z,15.90
2022-10-03T05:39:45.169Z,15.50
2022-10-03T05:45:21.138Z,15.50
2022-10-03T05:50:41.835Z,15.30
2022-10-03T05:56:05.875Z,15.70
2022-10-03T06:01:42.670Z,15.90
2022-10-03T06:06:57.232Z,16.10
2022-10-03T06:12:10.553Z,16.10
2022-10-03T06:17:47.543Z,16.10
2022-10-03T06:23:27.179Z,16.40
2022-10-03T06:28:53.247Z,16.90
2022-10-03T06:34:19.867Z,16.90
2022-10-03T06:39:36.747Z,17.10
2022-10-03T06:45:24.207Z,17.10
2022-10-03T06:50:44.128Z,17.40
2022-10-03T06:56:09.885Z,17.70
2022-10-03T07:01:11.639Z,17.90
2022-10-03T07:06:31.383Z,18.10
2022-10-03T07:12:14.373Z,18.30
2022-10-03T07:17:36.476Z,18.80
2022-10-03T07:23:23.524Z,18.90
2022-10-03T07:28:45.401Z,18.90
2022-10-03T07:34:23.614Z,18.90
2022-10-03T07:39:52.920Z,18.60
2022-10-03T07:44:57.538Z,18.50
2022-10-03T07:50:07.995Z,18.60
2022-10-03T07:55:49.491Z,18.60
2022-10-03T08:01:18.164Z,18.80
2022-10-03T08:06:40.168Z,19.30
2022-10-03T08:11:57.040Z,19.50
2022-10-03T08:17:25.130Z,19.70
2022-10-03T08:22:49.797Z,20.20
2022-10-03T08:28:03.273Z,20.30
2022-10-03T08:33:25.220Z,20.30
2022-10-03T08:39:08.013Z,20.70
2022-10-03T08:44:38.769Z,20.90
2022-10-03T08:49:52.535Z,21.10
2022-10-03T08:55:05.939Z,21.20
2022-10-03T09:00:20.879Z,21.20
2022-10-03T09:05:33.787Z,21.30
2022-10-03T09:11:03.382Z,21.50
2022-10-03T09:16:18.655Z,21.90
2022-10-03T09:21:55.572Z,21.70
2022-10-03T09:27:18.452Z,22.00
2022-10-03T09:32:47.285Z,22.40
2022-10-03T09:38:25.615Z,22.30
2022-10-03T09:43:46.666Z,22.30
2022-10-03T09:49:12.563Z,22.70
2022-10-03T09:54:51.729Z,22.70
2022-10-03T10:00:20.575Z,22.80
2022-10-03T10:05:40.847Z,23.70
2022-10-03T10:10:54.449Z,23.80
2022-10-03T10:16:20.360Z,24.00
2022-10-03T10:21:27.839Z,23.50
2022-10-03T10:26:50.619Z,23.30
2022-10-03T10:32:16.600Z,23.70
2022-10-03T10:43:22.681Z,24.20
2022-10-03T10:48:51.773Z,24.40
2022-10-03T10:54:18.151Z,24.70
2022-10-03T10:59:38.721Z,24.80
2022-10-03T11:04:55.603Z,25.60
2022-10-03T11:10:50.644Z,25.40
2022-10-03T11:16:15.084Z,25.30
2022-10-03T11:21:29.101Z,24.80
2022-10-03T11:26:42.951Z,25.00
2022-10-03T11:32:27.535Z,25.70
2022-10-03T11:37:50.848Z,25.60
2022-10-03T11:43:14.223Z,26.30
2022-10-03T11:48:42.624Z,24.60
2022-10-03T11:54:03.604Z,25.90
2022-10-03T11:59:33.857Z,26.20
2022-10-03T12:05:05.697Z,26.90
2022-10-03T12:10:39.544Z,26.50
2022-10-03T12:15:50.789Z,26.90
2022-10-03T12:21:10.872Z,26.60
2022-10-03T12:26:20.927Z,26.30
2022-10-03T12:31:37.430Z,26.30
2022-10-03T12:37:10.353Z,26.20
2022-10-03T12:42:30.669Z,26.30
2022-10-03T12:47:55.900Z,26.10
2022-10-03T12:53:07.330Z,26.50
2022-10-03T12:58:52.231Z,27.50
2022-10-03T13:04:07.298Z,27.60
2022-10-03T13:09:20.899Z,27.30
2022-10-03T13:14:40.668Z,26.10
2022-10-03T13:20:00.636Z,26.00
2022-10-03T13:25:05.467Z,26.20
2022-10-03T13:30:25.157Z,27.10
2022-10-03T13:35:48.604Z,26.80
2022-10-03T13:41:16.032Z,27.20
2022-10-03T13:46:26.820Z,26.70
2022-10-03T13:51:51.931Z,26.90
2022-10-03T13:57:10.591Z,26.50
2022-10-03T14:02:35.762Z,26.70
2022-10-03T14:07:56.341Z,27.00
2022-10-03T14:13:04.316Z,27.20
2022-10-03T14:18:18.472Z,26.40
2022-10-03T14:23:36.085Z,26.00
2022-10-03T14:29:17.412Z,26.10
2022-10-03T14:34:52.988Z,25.90
2022-10-03T14:40:18.582Z,25.30
2022-10-03T14:45:37.318Z,25.30
2022-10-03T14:50:41.950Z,24.90
2022-10-03T14:55:56.806Z,24.90
2022-10-03T15:01:19.583Z,25.00
2022-10-03T15:06:49.941Z,24.80
2022-10-03T15:12:03.646Z,24.70
2022-10-03T15:17:16.336Z,24.70
2022-10-03T15:22:37.588Z,24.50
2022-10-03T15:27:46.521Z,24.40
2022-10-03T15:32:49.347Z,24.20
2022-10-03T15:37:51.950Z,24.30
2022-10-03T15:43:04.861Z,24.10
2022-10-03T15:48:12.517Z,24.20
2022-10-03T15:53:37.223Z,24.10
2022-10-03T15:58:45.445Z,24.10
2022-10-03T16:03:54.247Z,24.00
2022-10-03T16:09:25.482Z,24.00
2022-10-03T16:14:49.160Z,23.90
2022-10-03T16:19:59.158Z,24.00
2022-10-03T16:25:19.665Z,23.80
2022-10-03T16:30:34.633Z,23.90
2022-10-03T16:35:49.114Z,23.80
2022-10-03T16:40:57.910Z,23.30
2022-10-03T16:46:09.129Z,23.10
2022-10-03T16:51:35.835Z,22.90
2022-10-03T16:56:43.573Z,22.60
2022-10-03T17:01:54.021Z,22.50
2022-10-03T17:06:58.546Z,22.20
2022-10-03T17:12:01.945Z,22.20
2022-10-03T17:17:08.376Z,21.90
2022-10-03T17:22:15.312Z,21.80
2022-10-03T17:27:20.818Z,21.80
2022-10-03T17:32:36.085Z,21.80
2022-10-03T17:38:24.666Z,21.60
2022-10-03T17:43:34.600Z,21.60
2022-10-03T17:48:44.092Z,21.50
2022-10-03T17:53:55.444Z,21.40
2022-10-03T17:59:11.317Z,21.40
2022-10-03T18:04:19.446Z,21.20
2022-10-03T18:09:26.327Z,21.10
2022-10-03T18:14:59.448Z,20.90
2022-10-03T18:20:03.029Z,20.80
2022-10-03T18:25:30.857Z,20.70
2022-10-03T18:30:34.186Z,20.70
2022-10-03T18:35:37.156Z,20.60
2022-10-03T18:41:05.171Z,20.50
2022-10-03T18:46:14.390Z,20.30
2022-10-03T18:51:26.484Z,20.40
2022-10-03T18:56:28.168Z,20.30
2022-10-03T19:01:41.773Z,20.20
2022-10-03T19:06:50.834Z,20.00
2022-10-03T19:11:56.618Z,20.00
2022-10-03T19:17:22.051Z,20.00
2022-10-03T19:22:37.200Z,19.90
2022-10-03T19:27:44.044Z,19.80
2022-10-03T19:32:52.378Z,20.00
2022-10-03T19:37:59.950Z,19.80
2022-10-03T19:43:31.862Z,19.80
2022-10-03T19:48:34.984Z,19.80
2022-10-03T19:53:41.950Z,19.90
2022-10-03T19:58:48.520Z,19.80
2022-10-03T20:03:55.520Z,19.60
2022-10-03T20:09:06.983Z,19.80
2022-10-03T20:14:23.947Z,19.70
2022-10-03T20:19:28.614Z,19.70
2022-10-03T20:24:37.991Z,19.70
2022-10-03T20:29:49.996Z,19.40
2022-10-03T20:34:55.879Z,19.50
2022-10-03T20:40:15.484Z,19.40
2022-10-03T20:45:23.870Z,19.40
2022-10-03T20:50:33.942Z,19.30
2022-10-03T20:55:46.598Z,19.30
2022-10-03T21:00:52.190Z,19.20
2022-10-03T21:05:56.709Z,19.40
2022-10-03T21:11:01.464Z,19.60
2022-10-03T21:16:15.087Z,19.70
2022-10-03T21:21:26.304Z,19.50
2022-10-03T21:26:32.305Z,19.50
2022-10-03T21:31:38.645Z,19.60
2022-10-03T21:36:50.114Z,19.30
2022-10-03T21:42:04.263Z,19.20
2022-10-03T21:47:14.031Z,19.10
2022-10-03T21:52:28.475Z,19.20
2022-10-03T21:57:54.830Z,19.10
2022-10-03T22:03:21.576Z,19.20
2022-10-03T22:08:30.215Z,19.20
2022-10-03T22:13:36.808Z,19.00
2022-10-03T22:19:13.493Z,19.00
2022-10-03T22:24:39.782Z,19.00
2022-10-03T22:30:08.467Z,18.90
2022-10-03T22:35:40.233Z,18.70
2022-10-03T22:40:42.620Z,18.60
2022-10-03T22:45:47.765Z,18.40
2022-10-03T22:50:50.939Z,18.30
2022-10-03T22:55:57.076Z,18.40
2022-10-03T23:01:01.187Z,18.60
2022-10-03T23:06:40.276Z,18.60
2022-10-03T23:11:45.492Z,18.50
2022-10-03T23:17:05.192Z,18.30
2022-10-03T23:22:15.115Z,18.50
2022-10-03T23:27:47.542Z,18.50
2022-10-03T23:32:49.439Z,18.70
2022-10-03T23:37:51.124Z,18.70
2022-10-03T23:42:59.637Z,18.70
2022-10-03T23:48:07.210Z,18.50
2022-10-03T23:53:21.713Z,18.80
2022-10-03T23:58:28.402Z,18.40
